sensor_id;sensor_type;location;lat;lon;timestamp;pressure;altitude;pressure_sealevel;temperature;humidity
70730;BME280;58315;53.336;55.932;2022-08-11T00:00:13;99969.06;;;22.66;52.21
70730;BME280;58315;53.336;55.932;2022-08-11T00:02:44;99970.50;;;22.61;52.17
70730;BME280;58315;53.336;55.932;2022-08-11T00:05:16;99971.13;;;22.57;52.58
70730;BME280;58315;53.336;55.932;2022-08-11T00:07:49;99968.03;;;22.47;52.71
70730;BME280;58315;53.336;55.932;2022-08-11T00:10:22;99976.09;;;22.47;53.01
70730;BME280;58315;53.336;55.932;2022-08-11T00:12:58;99972.59;;;22.46;52.86
70730;BME280;58315;53.336;55.932;2022-08-11T00:15:27;99982.53;;;22.46;52.76
70730;BME280;58315;53.336;55.932;2022-08-11T00:17:59;99982.31;;;22.54;52.54
70730;BME280;58315;53.336;55.932;2022-08-11T00:20:34;99985.19;;;22.52;52.50
70730;BME280;58315;53.336;55.932;2022-08-11T00:23:08;99996.59;;;22.41;52.49
70730;BME280;58315;53.336;55.932;2022-08-11T00:25:40;99997.00;;;22.31;52.90
70730;BME280;58315;53.336;55.932;2022-08-11T00:28:30;99999.28;;;22.41;52.96
70730;BME280;58315;53.336;55.932;2022-08-11T00:31:00;99995.31;;;22.30;53.02
70730;BME280;58315;53.336;55.932;2022-08-11T00:33:36;99985.59;;;22.23;53.23
70730;BME280;58315;53.336;55.932;2022-08-11T00:36:04;99984.50;;;22.10;53.70
70730;BME280;58315;53.336;55.932;2022-08-11T00:38:33;99988.47;;;22.14;53.78
70730;BME280;58315;53.336;55.932;2022-08-11T00:43:46;99988.94;;;22.38;53.12
70730;BME280;58315;53.336;55.932;2022-08-11T00:58:18;100006.31;;;22.29;53.59
70730;BME280;58315;53.336;55.932;2022-08-11T01:21:37;100005.75;;;22.60;54.01
70730;BME280;58315;53.336;55.932;2022-08-11T01:45:02;100021.06;;;22.53;53.84
70730;BME280;58315;53.336;55.932;2022-08-11T01:47:55;100032.25;;;22.56;53.58
70730;BME280;58315;53.336;55.932;2022-08-11T01:53:14;100028.28;;;22.59;53.86
70730;BME280;58315;53.336;55.932;2022-08-11T01:55:51;100032.66;;;22.67;53.67
70730;BME280;58315;53.336;55.932;2022-08-11T02:06:40;100021.66;;;22.88;53.42
70730;BME280;58315;53.336;55.932;2022-08-11T02:09:52;100030.19;;;22.98;53.23
70730;BME280;58315;53.336;55.932;2022-08-11T02:15:14;100030.63;;;23.08;52.87
70730;BME280;58315;53.336;55.932;2022-08-11T02:18:06;100027.28;;;23.00;52.91
70730;BME280;58315;53.336;55.932;2022-08-11T02:20:45;100028.56;;;22.97;52.70
70730;BME280;58315;53.336;55.932;2022-08-11T02:23:50;100026.47;;;22.99;52.88
70730;BME280;58315;53.336;55.932;2022-08-11T02:40:09;100040.94;;;23.25;52.29
70730;BME280;58315;53.336;55.932;2022-08-11T02:42:52;100048.84;;;23.33;52.17
70730;BME280;58315;53.336;55.932;2022-08-11T02:48:14;100040.09;;;23.38;52.07
70730;BME280;58315;53.336;55.932;2022-08-11T02:54:30;100048.94;;;23.78;51.37
70730;BME280;58315;53.336;55.932;2022-08-11T02:57:05;100054.94;;;23.80;51.72
70730;BME280;58315;53.336;55.932;2022-08-11T02:59:54;100052.41;;;23.92;51.85
70730;BME280;58315;53.336;55.932;2022-08-11T03:10:31;100059.03;;;24.34;51.57
70730;BME280;58315;53.336;55.932;2022-08-11T03:13:20;100061.19;;;24.57;51.72
70730;BME280;58315;53.336;55.932;2022-08-11T03:16:41;100058.22;;;24.72;51.28
70730;BME280;58315;53.336;55.932;2022-08-11T03:19:35;100059.22;;;24.71;51.04
70730;BME280;58315;53.336;55.932;2022-08-11T03:22:16;100064.44;;;24.72;51.06
70730;BME280;58315;53.336;55.932;2022-08-11T03:24:58;100072.56;;;24.97;51.35
70730;BME280;58315;53.336;55.932;2022-08-11T03:30:18;100071.78;;;26.98;48.88
70730;BME280;58315;53.336;55.932;2022-08-11T03:44:33;100082.09;;;32.17;38.55
70730;BME280;58315;53.336;55.932;2022-08-11T03:50:11;100083.03;;;33.35;36.90
70730;BME280;58315;53.336;55.932;2022-08-11T03:53:01;100083.75;;;33.71;36.55
70730;BME280;58315;53.336;55.932;2022-08-11T04:14:41;100098.13;;;36.64;31.67
70730;BME280;58315;53.336;55.932;2022-08-11T04:17:49;100102.84;;;36.78;31.06
70730;BME280;58315;53.336;55.932;2022-08-11T04:24:03;100105.81;;;37.47;30.23
70730;BME280;58315;53.336;55.932;2022-08-11T04:27:48;100108.19;;;37.95;29.89
70730;BME280;58315;53.336;55.932;2022-08-11T04:30:26;100106.75;;;38.11;29.89
70730;BME280;58315;53.336;55.932;2022-08-11T04:38:33;100103.44;;;38.95;28.34
70730;BME280;58315;53.336;55.932;2022-08-11T04:41:31;100105.16;;;39.14;29.16
70730;BME280;58315;53.336;55.932;2022-08-11T04:44:22;100108.06;;;39.40;28.53
70730;BME280;58315;53.336;55.932;2022-08-11T05:05:34;100109.00;;;41.02;26.75
70730;BME280;58315;53.336;55.932;2022-08-11T05:13:47;100106.34;;;41.23;26.26
70730;BME280;58315;53.336;55.932;2022-08-11T05:16:44;100108.91;;;41.28;25.63
70730;BME280;58315;53.336;55.932;2022-08-11T05:19:31;100101.25;;;41.72;26.29
70730;BME280;58315;53.336;55.932;2022-08-11T05:22:17;100095.31;;;41.82;26.24
70730;BME280;58315;53.336;55.932;2022-08-11T05:28:04;100097.41;;;42.56;25.36
70730;BME280;58315;53.336;55.932;2022-08-11T05:30:55;100093.72;;;42.85;24.48
70730;BME280;58315;53.336;55.932;2022-08-11T05:33:49;100108.09;;;42.88;24.48
70730;BME280;58315;53.336;55.932;2022-08-11T05:36:46;100098.94;;;43.08;24.05
70730;BME280;58315;53.336;55.932;2022-08-11T05:39:16;100100.31;;;43.14;24.20
70730;BME280;58315;53.336;55.932;2022-08-11T05:42:04;100108.41;;;42.74;24.13
70730;BME280;58315;53.336;55.932;2022-08-11T05:44:52;100095.00;;;43.09;24.20
70730;BME280;58315;53.336;55.932;2022-08-11T05:47:38;100097.13;;;43.03;24.55
70730;BME280;58315;53.336;55.932;2022-08-11T05:50:25;100097.72;;;43.67;23.87
70730;BME280;58315;53.336;55.932;2022-08-11T05:53:12;100099.09;;;43.73;23.64
70730;BME280;58315;53.336;55.932;2022-08-11T05:56:03;100093.88;;;43.47;23.76
70730;BME280;58315;53.336;55.932;2022-08-11T05:58:50;100106.06;;;43.67;23.24
70730;BME280;58315;53.336;55.932;2022-08-11T06:01:25;100098.28;;;43.72;22.99
70730;BME280;58315;53.336;55.932;2022-08-11T06:03:55;100099.44;;;43.84;23.24
70730;BME280;58315;53.336;55.932;2022-08-11T06:06:50;100097.94;;;43.86;22.84
70730;BME280;58315;53.336;55.932;2022-08-11T06:24:27;100087.16;;;42.57;23.75
70730;BME280;58315;53.336;55.932;2022-08-11T06:26:54;100088.59;;;41.15;24.67
70730;BME280;58315;53.336;55.932;2022-08-11T06:29:22;100085.72;;;40.33;25.95
70730;BME280;58315;53.336;55.932;2022-08-11T06:31:55;100082.69;;;39.38;26.79
70730;BME280;58315;53.336;55.932;2022-08-11T06:40:07;100075.84;;;37.12;28.73
70730;BME280;58315;53.336;55.932;2022-08-11T06:42:45;100066.84;;;37.07;28.75
70730;BME280;58315;53.336;55.932;2022-08-11T06:47:51;100074.44;;;36.63;29.45
70730;BME280;58315;53.336;55.932;2022-08-11T06:50:19;100068.22;;;36.39;29.67
70730;BME280;58315;53.336;55.932;2022-08-11T06:53:06;100067.19;;;35.92;30.32
70730;BME280;58315;53.336;55.932;2022-08-11T06:55:35;100068.00;;;35.73;30.25
70730;BME280;58315;53.336;55.932;2022-08-11T06:58:27;100070.75;;;35.73;30.44
70730;BME280;58315;53.336;55.932;2022-08-11T07:01:14;100066.91;;;35.45;31.06
70730;BME280;58315;53.336;55.932;2022-08-11T07:03:55;100072.50;;;35.35;30.89
70730;BME280;58315;53.336;55.932;2022-08-11T07:06:43;100069.81;;;35.30;30.68
70730;BME280;58315;53.336;55.932;2022-08-11T07:12:17;100061.56;;;35.59;30.70
70730;BME280;58315;53.336;55.932;2022-08-11T07:15:09;100067.06;;;35.59;30.75
70730;BME280;58315;53.336;55.932;2022-08-11T07:17:55;100062.44;;;35.55;30.88
70730;BME280;58315;53.336;55.932;2022-08-11T07:20:44;100061.94;;;35.47;31.19
70730;BME280;58315;53.336;55.932;2022-08-11T07:23:33;100064.91;;;35.56;31.14
70730;BME280;58315;53.336;55.932;2022-08-11T07:26:21;100065.78;;;35.52;30.98
70730;BME280;58315;53.336;55.932;2022-08-11T07:29:10;100060.28;;;35.52;30.44
70730;BME280;58315;53.336;55.932;2022-08-11T07:31:48;100062.72;;;35.77;30.91
70730;BME280;58315;53.336;55.932;2022-08-11T07:34:21;100059.22;;;35.90;29.97
70730;BME280;58315;53.336;55.932;2022-08-11T07:36:51;100050.91;;;35.77;29.95
70730;BME280;58315;53.336;55.932;2022-08-11T07:39:24;100057.84;;;35.93;29.90
70730;BME280;58315;53.336;55.932;2022-08-11T07:41:53;100053.06;;;35.80;29.47
70730;BME280;58315;53.336;55.932;2022-08-11T07:44:20;100046.28;;;35.72;30.14
70730;BME280;58315;53.336;55.932;2022-08-11T07:46:51;100049.19;;;35.62;30.47
70730;BME280;58315;53.336;55.932;2022-08-11T07:49:38;100042.75;;;35.42;30.23
70730;BME280;58315;53.336;55.932;2022-08-11T07:52:25;100044.84;;;35.56;30.72
70730;BME280;58315;53.336;55.932;2022-08-11T07:54:55;100041.88;;;35.47;30.17
70730;BME280;58315;53.336;55.932;2022-08-11T07:57:23;100039.63;;;35.30;29.98
70730;BME280;58315;53.336;55.932;2022-08-11T08:00:08;100038.66;;;35.16;30.17
70730;BME280;58315;53.336;55.932;2022-08-11T08:02:54;100041.81;;;35.28;30.31
70730;BME280;58315;53.336;55.932;2022-08-11T08:05:38;100032.91;;;35.41;30.26
70730;BME280;58315;53.336;55.932;2022-08-11T08:08:24;100029.63;;;35.63;30.40
70730;BME280;58315;53.336;55.932;2022-08-11T08:11:09;100031.03;;;35.37;30.92
70730;BME280;58315;53.336;55.932;2022-08-11T08:13:55;100013.88;;;35.21;31.11
70730;BME280;58315;53.336;55.932;2022-08-11T08:16:41;100025.41;;;35.23;31.20
70730;BME280;58315;53.336;55.932;2022-08-11T08:19:26;100015.81;;;35.20;31.67
70730;BME280;58315;53.336;55.932;2022-08-11T08:21:53;100023.19;;;35.49;31.01
70730;BME280;58315;53.336;55.932;2022-08-11T08:24:20;100027.19;;;35.62;30.79
70730;BME280;58315;53.336;55.932;2022-08-11T08:26:47;100020.28;;;35.40;30.86
70730;BME280;58315;53.336;55.932;2022-08-11T08:29:32;100015.22;;;35.53;30.73
70730;BME280;58315;53.336;55.932;2022-08-11T08:32:19;100020.69;;;35.53;30.73
70730;BME280;58315;53.336;55.932;2022-08-11T08:34:48;100006.41;;;35.26;31.12
70730;BME280;58315;53.336;55.932;2022-08-11T08:37:19;100009.94;;;35.03;31.09
70730;BME280;58315;53.336;55.932;2022-08-11T08:39:46;100004.03;;;34.91;31.50
70730;BME280;58315;53.336;55.932;2022-08-11T08:42:19;100003.06;;;35.06;31.65
70730;BME280;58315;53.336;55.932;2022-08-11T08:44:50;100006.75;;;35.20;31.82
70730;BME280;58315;53.336;55.932;2022-08-11T08:47:20;100006.53;;;35.16;31.64
70730;BME280;58315;53.336;55.932;2022-08-11T08:49:52;100005.22;;;34.79;31.83
70730;BME280;58315;53.336;55.932;2022-08-11T08:52:23;100005.38;;;34.93;31.60
70730;BME280;58315;53.336;55.932;2022-08-11T08:54:55;100000.22;;;35.16;31.56
70730;BME280;58315;53.336;55.932;2022-08-11T08:57:22;100008.81;;;35.33;31.40
70730;BME280;58315;53.336;55.932;2022-08-11T08:59:52;100007.06;;;35.42;30.82
70730;BME280;58315;53.336;55.932;2022-08-11T09:02:23;100020.78;;;35.42;31.00
70730;BME280;58315;53.336;55.932;2022-08-11T09:04:50;100041.81;;;34.99;31.67
70730;BME280;58315;53.336;55.932;2022-08-11T09:07:17;100042.28;;;34.43;32.50
70730;BME280;58315;53.336;55.932;2022-08-11T09:09:51;100050.03;;;33.76;37.14
70730;BME280;58315;53.336;55.932;2022-08-11T09:12:18;100042.53;;;33.22;39.15
70730;BME280;58315;53.336;55.932;2022-08-11T09:14:47;100040.06;;;32.54;40.20
70730;BME280;58315;53.336;55.932;2022-08-11T09:17:37;100040.59;;;31.62;41.45
70730;BME280;58315;53.336;55.932;2022-08-11T09:20:12;100035.41;;;30.49;41.72
70730;BME280;58315;53.336;55.932;2022-08-11T09:22:41;100025.19;;;29.63;42.97
70730;BME280;58315;53.336;55.932;2022-08-11T09:25:29;100001.81;;;28.90;41.65
70730;BME280;58315;53.336;55.932;2022-08-11T09:28:15;99998.00;;;28.74;41.82
70730;BME280;58315;53.336;55.932;2022-08-11T09:30:43;100010.41;;;28.98;40.51
70730;BME280;58315;53.336;55.932;2022-08-11T09:33:13;100010.09;;;29.34;41.34
70730;BME280;58315;53.336;55.932;2022-08-11T09:35:41;100001.34;;;29.53;39.26
70730;BME280;58315;53.336;55.932;2022-08-11T09:38:13;99996.53;;;30.04;40.65
70730;BME280;58315;53.336;55.932;2022-08-11T09:41:02;99993.50;;;30.60;43.72
70730;BME280;58315;53.336;55.932;2022-08-11T09:43:30;100000.88;;;30.92;45.46
70730;BME280;58315;53.336;55.932;2022-08-11T09:46:22;100013.09;;;31.27;47.12
70730;BME280;58315;53.336;55.932;2022-08-11T09:48:49;100025.09;;;31.26;45.79
70730;BME280;58315;53.336;55.932;2022-08-11T09:51:20;100032.97;;;31.17;47.31
70730;BME280;58315;53.336;55.932;2022-08-11T09:53:48;100033.91;;;30.95;46.09
70730;BME280;58315;53.336;55.932;2022-08-11T09:56:17;100032.34;;;31.05;45.43
70730;BME280;58315;53.336;55.932;2022-08-11T09:59:03;100026.25;;;30.92;45.60
70730;BME280;58315;53.336;55.932;2022-08-11T10:01:41;100020.84;;;30.97;46.09
70730;BME280;58315;53.336;55.932;2022-08-11T10:04:14;100010.97;;;30.91;46.41
70730;BME280;58315;53.336;55.932;2022-08-11T10:06:43;100005.41;;;30.76;46.06
70730;BME280;58315;53.336;55.932;2022-08-11T10:09:51;100006.84;;;30.89;46.41
70730;BME280;58315;53.336;55.932;2022-08-11T10:14:54;100007.97;;;30.93;47.32
70730;BME280;58315;53.336;55.932;2022-08-11T10:17:42;100017.81;;;30.94;47.36
70730;BME280;58315;53.336;55.932;2022-08-11T10:20:31;100011.28;;;30.95;47.00
70730;BME280;58315;53.336;55.932;2022-08-11T10:22:58;100003.06;;;30.90;47.46
70730;BME280;58315;53.336;55.932;2022-08-11T10:25:45;100008.84;;;30.66;47.19
70730;BME280;58315;53.336;55.932;2022-08-11T10:28:30;99991.78;;;30.49;45.80
70730;BME280;58315;53.336;55.932;2022-08-11T10:30:57;99992.38;;;30.56;44.83
70730;BME280;58315;53.336;55.932;2022-08-11T10:33:44;99993.13;;;30.79;45.33
70730;BME280;58315;53.336;55.932;2022-08-11T10:36:28;99983.31;;;30.78;44.56
70730;BME280;58315;53.336;55.932;2022-08-11T10:38:58;99985.09;;;30.62;45.95
70730;BME280;58315;53.336;55.932;2022-08-11T10:41:25;99980.34;;;30.79;46.31
70730;BME280;58315;53.336;55.932;2022-08-11T10:44:11;99973.88;;;30.90;45.79
70730;BME280;58315;53.336;55.932;2022-08-11T10:46:38;99970.59;;;30.93;45.43
70730;BME280;58315;53.336;55.932;2022-08-11T10:49:24;99972.56;;;30.98;44.98
70730;BME280;58315;53.336;55.932;2022-08-11T10:51:54;99976.41;;;31.02;45.08
70730;BME280;58315;53.336;55.932;2022-08-11T10:54:41;99994.47;;;31.13;44.55
70730;BME280;58315;53.336;55.932;2022-08-11T10:57:27;99990.41;;;31.21;44.53
70730;BME280;58315;53.336;55.932;2022-08-11T11:00:14;99993.94;;;31.16;43.98
70730;BME280;58315;53.336;55.932;2022-08-11T11:02:42;100000.81;;;31.29;43.93
70730;BME280;58315;53.336;55.932;2022-08-11T11:05:15;99994.06;;;31.37;44.78
70730;BME280;58315;53.336;55.932;2022-08-11T11:08:00;100002.00;;;31.38;44.47
70730;BME280;58315;53.336;55.932;2022-08-11T11:10:51;100000.53;;;31.26;44.00
70730;BME280;58315;53.336;55.932;2022-08-11T11:13:19;100003.25;;;31.20;44.68
70730;BME280;58315;53.336;55.932;2022-08-11T11:16:04;100008.94;;;31.19;45.10
70730;BME280;58315;53.336;55.932;2022-08-11T11:18:49;100047.38;;;30.75;45.33
70730;BME280;58315;53.336;55.932;2022-08-11T11:21:18;100047.22;;;30.60;46.27
70730;BME280;58315;53.336;55.932;2022-08-11T11:37:19;100080.44;;;30.24;43.46
70730;BME280;58315;53.336;55.932;2022-08-11T11:39:45;100078.44;;;30.20;43.84
70730;BME280;58315;53.336;55.932;2022-08-11T11:42:15;100086.56;;;30.15;44.18
70730;BME280;58315;53.336;55.932;2022-08-11T11:44:43;100079.34;;;30.03;44.24
70730;BME280;58315;53.336;55.932;2022-08-11T11:47:11;100070.34;;;30.03;44.34
70730;BME280;58315;53.336;55.932;2022-08-11T11:49:40;100066.59;;;30.09;44.30
70730;BME280;58315;53.336;55.932;2022-08-11T11:52:17;100065.44;;;30.27;44.46
70730;BME280;58315;53.336;55.932;2022-08-11T11:54:49;100047.09;;;30.44;44.17
70730;BME280;58315;53.336;55.932;2022-08-11T11:57:18;100044.25;;;30.61;44.27
70730;BME280;58315;53.336;55.932;2022-08-11T12:00:12;100034.06;;;30.79;43.89
70730;BME280;58315;53.336;55.932;2022-08-11T12:02:58;100027.13;;;30.98;43.35
70730;BME280;58315;53.336;55.932;2022-08-11T12:05:26;100020.97;;;31.18;43.67
70730;BME280;58315;53.336;55.932;2022-08-11T12:07:54;100016.47;;;31.34;44.03
70730;BME280;58315;53.336;55.932;2022-08-11T12:10:45;100019.78;;;31.46;43.69
70730;BME280;58315;53.336;55.932;2022-08-11T12:13:12;100023.63;;;31.55;43.38
70730;BME280;58315;53.336;55.932;2022-08-11T12:15:59;100022.03;;;31.64;43.34
70730;BME280;58315;53.336;55.932;2022-08-11T12:18:34;100026.97;;;31.67;43.70
70730;BME280;58315;53.336;55.932;2022-08-11T12:21:02;100026.91;;;31.52;43.00
70730;BME280;58315;53.336;55.932;2022-08-11T12:23:30;100023.69;;;31.65;42.94
70730;BME280;58315;53.336;55.932;2022-08-11T12:26:16;100014.44;;;31.77;42.86
70730;BME280;58315;53.336;55.932;2022-08-11T12:29:03;100020.00;;;31.97;42.47
70730;BME280;58315;53.336;55.932;2022-08-11T12:31:31;100021.66;;;32.03;41.58
70730;BME280;58315;53.336;55.932;2022-08-11T12:34:09;100017.03;;;32.14;41.76
70730;BME280;58315;53.336;55.932;2022-08-11T12:36:56;100017.88;;;32.30;40.83
70730;BME280;58315;53.336;55.932;2022-08-11T12:39:26;100016.78;;;32.26;41.65
70730;BME280;58315;53.336;55.932;2022-08-11T12:42:13;100008.84;;;32.34;40.41
70730;BME280;58315;53.336;55.932;2022-08-11T12:45:00;100010.75;;;32.18;40.49
70730;BME280;58315;53.336;55.932;2022-08-11T12:47:50;100006.66;;;32.16;40.00
70730;BME280;58315;53.336;55.932;2022-08-11T12:50:35;100009.91;;;32.13;40.03
70730;BME280;58315;53.336;55.932;2022-08-11T12:53:27;100007.22;;;32.18;39.17
70730;BME280;58315;53.336;55.932;2022-08-11T12:55:55;100001.72;;;32.08;40.40
70730;BME280;58315;53.336;55.932;2022-08-11T12:58:44;99986.69;;;32.15;40.09
70730;BME280;58315;53.336;55.932;2022-08-11T13:01:11;100002.28;;;32.15;40.01
70730;BME280;58315;53.336;55.932;2022-08-11T13:04:04;99999.81;;;32.13;40.67
70730;BME280;58315;53.336;55.932;2022-08-11T13:06:51;99992.16;;;32.15;40.72
70730;BME280;58315;53.336;55.932;2022-08-11T13:09:18;99990.25;;;32.16;40.75
70730;BME280;58315;53.336;55.932;2022-08-11T13:11:45;99995.16;;;32.14;40.70
70730;BME280;58315;53.336;55.932;2022-08-11T13:14:31;99996.53;;;32.16;41.37
70730;BME280;58315;53.336;55.932;2022-08-11T13:16:58;99990.00;;;32.23;41.05
70730;BME280;58315;53.336;55.932;2022-08-11T13:19:44;99991.63;;;32.18;41.41
70730;BME280;58315;53.336;55.932;2022-08-11T13:22:10;99983.41;;;32.13;41.21
70730;BME280;58315;53.336;55.932;2022-08-11T13:24:38;99988.88;;;32.08;41.01
70730;BME280;58315;53.336;55.932;2022-08-11T13:27:05;99992.97;;;32.06;41.24
70730;BME280;58315;53.336;55.932;2022-08-11T13:29:32;99990.75;;;32.03;41.31
70730;BME280;58315;53.336;55.932;2022-08-11T13:32:01;99994.06;;;32.05;41.65
70730;BME280;58315;53.336;55.932;2022-08-11T13:34:29;99991.59;;;31.98;41.29
70730;BME280;58315;53.336;55.932;2022-08-11T13:37:00;99997.03;;;31.98;41.25
70730;BME280;58315;53.336;55.932;2022-08-11T13:39:30;99991.59;;;31.93;41.35
70730;BME280;58315;53.336;55.932;2022-08-11T13:41:58;99989.09;;;31.86;40.58
70730;BME280;58315;53.336;55.932;2022-08-11T13:44:27;99987.75;;;31.99;40.88
70730;BME280;58315;53.336;55.932;2022-08-11T13:46:57;99992.16;;;32.15;40.97
70730;BME280;58315;53.336;55.932;2022-08-11T13:49:24;99992.19;;;32.26;40.73
70730;BME280;58315;53.336;55.932;2022-08-11T13:51:50;99999.00;;;32.28;40.68
70730;BME280;58315;53.336;55.932;2022-08-11T13:54:20;100000.38;;;32.31;41.41
70730;BME280;58315;53.336;55.932;2022-08-11T13:56:49;99987.81;;;32.14;41.39
70730;BME280;58315;53.336;55.932;2022-08-11T13:59:18;99992.69;;;32.12;40.74
70730;BME280;58315;53.336;55.932;2022-08-11T14:01:51;99992.16;;;32.15;40.74
70730;BME280;58315;53.336;55.932;2022-08-11T14:04:42;99989.72;;;32.24;40.94
70730;BME280;58315;53.336;55.932;2022-08-11T14:07:10;99986.16;;;32.03;41.21
70730;BME280;58315;53.336;55.932;2022-08-11T14:09:42;99980.69;;;32.03;41.55
70730;BME280;58315;53.336;55.932;2022-08-11T14:12:16;99987.50;;;32.06;41.21
70730;BME280;58315;53.336;55.932;2022-08-11T14:15:11;99988.31;;;32.06;41.47
70730;BME280;58315;53.336;55.932;2022-08-11T14:17:40;99981.72;;;31.87;41.38
70730;BME280;58315;53.336;55.932;2022-08-11T14:20:10;99988.72;;;31.62;41.44
70730;BME280;58315;53.336;55.932;2022-08-11T14:22:40;99994.44;;;31.56;41.47
70730;BME280;58315;53.336;55.932;2022-08-11T14:25:09;99987.88;;;31.62;41.44
70730;BME280;58315;53.336;55.932;2022-08-11T14:27:37;99979.94;;;31.50;41.43
70730;BME280;58315;53.336;55.932;2022-08-11T14:30:10;99988.97;;;31.56;41.38
70730;BME280;58315;53.336;55.932;2022-08-11T14:32:57;99986.75;;;31.48;41.21
70730;BME280;58315;53.336;55.932;2022-08-11T14:35:26;99990.09;;;31.60;40.86
70730;BME280;58315;53.336;55.932;2022-08-11T14:37:54;99995.75;;;31.48;41.13
70730;BME280;58315;53.336;55.932;2022-08-11T14:40:22;99990.84;;;31.45;41.48
70730;BME280;58315;53.336;55.932;2022-08-11T14:43:07;100000.38;;;31.42;41.79
70730;BME280;58315;53.336;55.932;2022-08-11T14:45:52;100001.19;;;31.43;41.85
70730;BME280;58315;53.336;55.932;2022-08-11T14:48:37;100001.22;;;31.48;42.12
70730;BME280;58315;53.336;55.932;2022-08-11T14:51:03;100010.22;;;31.43;41.81
70730;BME280;58315;53.336;55.932;2022-08-11T14:53:30;100008.69;;;31.20;42.35
70730;BME280;58315;53.336;55.932;2022-08-11T14:55:57;100004.28;;;31.09;42.47
70730;BME280;58315;53.336;55.932;2022-08-11T14:58:43;100011.50;;;30.93;42.40
70730;BME280;58315;53.336;55.932;2022-08-11T15:01:09;100009.44;;;30.73;42.95
70730;BME280;58315;53.336;55.932;2022-08-11T15:03:55;100004.72;;;30.64;43.42
70730;BME280;58315;53.336;55.932;2022-08-11T15:06:24;100012.78;;;30.76;43.09
70730;BME280;58315;53.336;55.932;2022-08-11T15:08:53;100007.81;;;30.72;43.01
70730;BME280;58315;53.336;55.932;2022-08-11T15:11:22;100007.31;;;30.76;43.12
70730;BME280;58315;53.336;55.932;2022-08-11T15:14:11;100006.03;;;30.56;43.55
70730;BME280;58315;53.336;55.932;2022-08-11T15:16:43;100019.97;;;30.60;44.00
70730;BME280;58315;53.336;55.932;2022-08-11T15:19:43;100027.59;;;30.58;44.22
70730;BME280;58315;53.336;55.932;2022-08-11T15:22:30;100033.88;;;30.58;44.25
70730;BME280;58315;53.336;55.932;2022-08-11T15:25:15;100043.34;;;30.50;44.57
70730;BME280;58315;53.336;55.932;2022-08-11T15:27:43;100034.28;;;30.45;45.07
70730;BME280;58315;53.336;55.932;2022-08-11T15:30:29;100039.00;;;30.27;45.87
70730;BME280;58315;53.336;55.932;2022-08-11T15:33:15;100039.09;;;30.11;46.14
70730;BME280;58315;53.336;55.932;2022-08-11T15:36:04;100041.88;;;30.16;46.35
70730;BME280;58315;53.336;55.932;2022-08-11T15:39:07;100040.44;;;30.08;46.85
70730;BME280;58315;53.336;55.932;2022-08-11T15:41:59;100045.88;;;30.08;46.61
70730;BME280;58315;53.336;55.932;2022-08-11T15:44:55;100053.06;;;29.92;47.10
70730;BME280;58315;53.336;55.932;2022-08-11T15:47:45;100058.19;;;29.89;47.36
70730;BME280;58315;53.336;55.932;2022-08-11T15:50:17;100065.09;;;29.74;48.11
70730;BME280;58315;53.336;55.932;2022-08-11T15:52:52;100069.47;;;29.75;47.72
70730;BME280;58315;53.336;55.932;2022-08-11T15:55:22;100064.56;;;29.55;47.88
70730;BME280;58315;53.336;55.932;2022-08-11T15:57:49;100072.50;;;29.40;48.12
70730;BME280;58315;53.336;55.932;2022-08-11T16:00:40;100081.34;;;29.30;47.98
70730;BME280;58315;53.336;55.932;2022-08-11T16:03:28;100075.84;;;29.25;47.76
70730;BME280;58315;53.336;55.932;2022-08-11T16:06:15;100084.50;;;29.05;47.40
70730;BME280;58315;53.336;55.932;2022-08-11T16:08:43;100083.41;;;29.06;47.11
70730;BME280;58315;53.336;55.932;2022-08-11T16:11:14;100086.56;;;28.98;47.34
70730;BME280;58315;53.336;55.932;2022-08-11T16:13:41;100088.69;;;28.96;46.77
70730;BME280;58315;53.336;55.932;2022-08-11T16:16:09;100095.09;;;28.90;46.64
70730;BME280;58315;53.336;55.932;2022-08-11T16:18:49;100097.56;;;28.92;46.25
70730;BME280;58315;53.336;55.932;2022-08-11T16:21:25;100099.06;;;28.82;45.41
70730;BME280;58315;53.336;55.932;2022-08-11T16:23:54;100106.53;;;28.75;45.20
70730;BME280;58315;53.336;55.932;2022-08-11T16:26:22;100106.16;;;28.55;44.88
70730;BME280;58315;53.336;55.932;2022-08-11T16:28:54;100104.59;;;28.59;44.89
70730;BME280;58315;53.336;55.932;2022-08-11T16:31:22;100101.56;;;28.55;44.92
70730;BME280;58315;53.336;55.932;2022-08-11T16:33:51;100106.09;;;28.50;44.44
70730;BME280;58315;53.336;55.932;2022-08-11T16:36:19;100106.81;;;28.33;44.10
70730;BME280;58315;53.336;55.932;2022-08-11T16:39:05;100115.47;;;28.30;44.30
70730;BME280;58315;53.336;55.932;2022-08-11T16:41:33;100119.97;;;28.25;44.19
70730;BME280;58315;53.336;55.932;2022-08-11T16:44:20;100123.19;;;28.22;44.02
70730;BME280;58315;53.336;55.932;2022-08-11T16:47:09;100130.16;;;28.18;44.46
70730;BME280;58315;53.336;55.932;2022-08-11T16:49:38;100131.38;;;28.10;44.54
70730;BME280;58315;53.336;55.932;2022-08-11T16:52:07;100130.56;;;27.98;44.53
70730;BME280;58315;53.336;55.932;2022-08-11T16:54:37;100132.94;;;27.94;44.85
70730;BME280;58315;53.336;55.932;2022-08-11T16:57:13;100130.81;;;27.96;44.93
70730;BME280;58315;53.336;55.932;2022-08-11T17:00:03;100141.91;;;27.95;44.86
70730;BME280;58315;53.336;55.932;2022-08-11T17:02:34;100145.22;;;27.85;45.19
70730;BME280;58315;53.336;55.932;2022-08-11T17:05:22;100138.88;;;27.79;45.61
70730;BME280;58315;53.336;55.932;2022-08-11T17:08:08;100137.31;;;27.60;45.98
70730;BME280;58315;53.336;55.932;2022-08-11T17:10:57;100151.84;;;27.54;46.42